createdAt,value
2022-10-31T00:00:44.255Z,46.08
2022-10-31T00:01:46.711Z,46.47
2022-10-31T00:02:50.315Z,40.30
2022-10-31T00:03:52.519Z,43.40
2022-10-31T00:04:55.789Z,44.25
2022-10-31T00:05:57.895Z,46.47
2022-10-31T00:07:00.972Z,45.83
2022-10-31T00:08:03.166Z,44.92
2022-10-31T00:09:07.201Z,56.03
2022-10-31T00:10:10.336Z,45.88
2022-10-31T00:11:14.858Z,46.75
2022-10-31T00:12:16.946Z,51.20
2022-10-31T00:13:19.996Z,51.08
2022-10-31T00:14:23.492Z,51.47
2022-10-31T00:15:25.742Z,51.80
2022-10-31T00:16:30.192Z,49.33
2022-10-31T00:17:32.417Z,44.08
2022-10-31T00:18:35.811Z,50.85
2022-10-31T00:19:38.323Z,47.63
2022-10-31T00:20:41.563Z,46.92
2022-10-31T00:21:43.701Z,47.33
2022-10-31T00:22:46.782Z,46.10
2022-10-31T00:23:49.324Z,45.92
2022-10-31T00:24:52.472Z,49.33
2022-10-31T00:25:54.616Z,47.90
2022-10-31T00:26:59.137Z,55.38
2022-10-31T00:28:01.510Z,55.20
2022-10-31T00:29:05.856Z,45.67
2022-10-31T00:30:09.000Z,50.08
2022-10-31T00:31:13.976Z,48.83
2022-10-31T00:32:16.047Z,47.22
2022-10-31T00:33:19.211Z,51.63
2022-10-31T00:34:21.335Z,50.60
2022-10-31T00:35:24.486Z,55.38
2022-10-31T00:36:26.642Z,51.20
2022-10-31T00:37:29.761Z,47.65
2022-10-31T00:38:31.890Z,53.38
2022-10-31T00:39:34.991Z,49.83
2022-10-31T00:40:37.092Z,55.40
2022-10-31T00:41:40.312Z,49.58
2022-10-31T00:42:49.282Z,50.67
2022-10-31T00:43:52.379Z,47.47
2022-10-31T00:44:54.756Z,47.88
2022-10-31T00:45:57.885Z,45.88
2022-10-31T00:47:00.468Z,45.63
2022-10-31T00:48:03.705Z,40.67
2022-10-31T00:49:06.333Z,45.55
2022-10-31T00:50:10.863Z,42.85
2022-10-31T00:51:14.021Z,50.42
2022-10-31T00:52:18.240Z,46.28
2022-10-31T00:53:20.335Z,46.03
2022-10-31T00:54:23.656Z,48.55
2022-10-31T00:55:25.877Z,46.80
2022-10-31T00:56:30.014Z,55.08
2022-10-31T00:57:33.493Z,51.05
2022-10-31T00:58:38.015Z,45.00
2022-10-31T00:59:40.112Z,51.25
2022-10-31T01:00:46.696Z,55.95
2022-10-31T01:01:51.747Z,49.13
2022-10-31T01:02:55.063Z,49.38
2022-10-31T01:03:57.195Z,47.33
2022-10-31T01:05:00.386Z,50.95
2022-10-31T01:06:04.612Z,57.47
2022-10-31T01:07:09.343Z,53.83
2022-10-31T01:08:11.491Z,55.65
2022-10-31T01:09:14.709Z,45.53
2022-10-31T01:10:18.951Z,51.83
2022-10-31T01:11:24.106Z,59.55
2022-10-31T01:12:26.227Z,49.00
2022-10-31T01:13:29.359Z,48.10
2022-10-31T01:14:32.964Z,57.63
2022-10-31T01:15:36.065Z,55.58
2022-10-31T01:16:38.182Z,59.17
2022-10-31T01:17:41.736Z,56.88
2022-10-31T01:18:48.133Z,58.20
2022-10-31T01:19:50.247Z,57.05
2022-10-31T01:21:03.616Z,52.30
2022-10-31T01:22:05.864Z,56.10
2022-10-31T01:23:08.936Z,55.80
2022-10-31T01:24:11.170Z,66.13
2022-10-31T01:25:15.320Z,45.60
2022-10-31T01:26:19.707Z,58.05
2022-10-31T01:27:22.798Z,50.20
2022-10-31T01:29:28.876Z,57.97
2022-10-31T01:30:33.121Z,55.28
2022-10-31T01:31:38.714Z,52.25
2022-10-31T01:32:40.767Z,54.95
2022-10-31T01:33:44.105Z,52.53
2022-10-31T01:34:46.201Z,53.85
2022-10-31T01:35:49.334Z,53.30
2022-10-31T01:36:53.076Z,52.65
2022-10-31T01:37:55.460Z,59.22
2022-10-31T01:39:00.771Z,55.08
2022-10-31T01:40:03.084Z,54.53
2022-10-31T01:41:06.980Z,55.33
2022-10-31T01:42:19.977Z,60.35
2022-10-31T01:44:54.845Z,66.43
2022-10-31T01:45:58.392Z,51.58
2022-10-31T01:47:06.333Z,60.65
2022-10-31T01:48:14.830Z,55.35
2022-10-31T01:49:24.067Z,59.63
2022-10-31T01:50:32.569Z,53.25
2022-10-31T01:51:38.736Z,59.80
2022-10-31T01:52:44.054Z,56.40
2022-10-31T01:53:48.277Z,57.13
2022-10-31T01:54:55.315Z,62.70
2022-10-31T01:55:59.322Z,55.20
2022-10-31T01:57:03.810Z,59.30
2022-10-31T01:58:11.714Z,63.08
2022-10-31T01:59:20.669Z,65.28
2022-10-31T02:00:24.658Z,58.25
2022-10-31T02:01:30.609Z,58.50
2022-10-31T02:02:33.400Z,64.32
2022-10-31T02:03:37.037Z,67.70
2022-10-31T02:04:40.341Z,62.30
2022-10-31T02:05:45.708Z,59.13
2022-10-31T02:06:52.274Z,55.40
2022-10-31T02:07:59.313Z,65.28
2022-10-31T02:09:07.299Z,64.15
2022-10-31T02:10:10.649Z,67.93
2022-10-31T02:11:15.248Z,53.78
2022-10-31T02:12:18.824Z,56.85
2022-10-31T02:14:28.996Z,64.05
2022-10-31T02:15:33.487Z,69.90
2022-10-31T02:16:36.967Z,61.35
2022-10-31T02:17:40.235Z,63.30
2022-10-31T02:18:43.392Z,65.32
2022-10-31T02:19:54.002Z,63.30
2022-10-31T02:21:05.063Z,60.78
2022-10-31T02:22:14.489Z,62.90
2022-10-31T02:23:52.039Z,63.45
2022-10-31T02:25:15.121Z,62.22
2022-10-31T02:26:36.229Z,62.63
2022-10-31T02:27:54.347Z,67.68
2022-10-31T02:29:32.532Z,71.63
2022-10-31T02:30:42.478Z,67.05
2022-10-31T02:31:57.732Z,70.25
2022-10-31T02:33:13.348Z,71.50
2022-10-31T02:34:22.872Z,69.32
2022-10-31T02:35:42.751Z,71.30
2022-10-31T02:36:55.160Z,65.43
2022-10-31T02:38:05.473Z,71.60
2022-10-31T02:39:14.736Z,66.53
2022-10-31T02:41:50.294Z,68.95
2022-10-31T02:43:03.038Z,67.70
2022-10-31T02:44:13.762Z,70.28
2022-10-31T02:45:23.768Z,66.93
2022-10-31T02:46:31.372Z,70.25
2022-10-31T02:47:40.008Z,63.17
2022-10-31T02:48:45.658Z,73.70
2022-10-31T02:49:56.671Z,78.97
2022-10-31T02:51:01.980Z,77.60
2022-10-31T02:52:16.116Z,73.68
2022-10-31T02:53:18.256Z,74.30
2022-10-31T02:54:23.875Z,73.00
2022-10-31T02:55:49.006Z,75.75
2022-10-31T02:56:58.543Z,74.55
2022-10-31T02:58:06.145Z,75.40
2022-10-31T02:59:09.316Z,74.10
2022-10-31T03:00:12.292Z,71.30
2022-10-31T03:01:52.581Z,75.00
2022-10-31T03:03:05.020Z,80.50
2022-10-31T03:04:31.160Z,66.32
2022-10-31T03:05:49.390Z,70.88
2022-10-31T03:07:00.369Z,71.68
2022-10-31T03:08:10.644Z,76.60
2022-10-31T03:09:20.842Z,78.60
2022-10-31T03:10:32.227Z,86.55
2022-10-31T03:11:46.924Z,70.82
2022-10-31T03:13:01.929Z,83.95
2022-10-31T03:14:11.679Z,77.53
2022-10-31T03:15:21.639Z,79.00
2022-10-31T03:16:30.429Z,71.75
2022-10-31T03:17:39.220Z,79.65
2022-10-31T03:18:49.343Z,93.28
2022-10-31T03:19:57.915Z,79.88
2022-10-31T03:21:07.448Z,86.15
2022-10-31T03:22:18.465Z,85.07
2022-10-31T03:23:23.095Z,76.15
2022-10-31T03:24:32.819Z,83.13
2022-10-31T03:25:38.115Z,75.82
2022-10-31T03:26:46.228Z,86.22
2022-10-31T03:27:50.967Z,83.80
2022-10-31T03:28:59.431Z,86.30
2022-10-31T03:30:04.703Z,83.43
2022-10-31T03:31:17.925Z,81.45
2022-10-31T03:32:25.620Z,87.97
2022-10-31T03:33:33.272Z,87.03
2022-10-31T03:34:39.294Z,79.72
2022-10-31T03:35:47.010Z,86.07
2022-10-31T03:36:52.475Z,90.40
2022-10-31T03:37:57.483Z,85.13
2022-10-31T03:39:03.302Z,87.63
2022-10-31T03:40:10.167Z,86.72
2022-10-31T03:41:17.428Z,83.93
2022-10-31T03:42:26.639Z,84.90
2022-10-31T03:43:33.405Z,85.78
2022-10-31T03:44:37.693Z,89.55
2022-10-31T03:45:44.266Z,86.53
2022-10-31T03:46:48.870Z,80.03
2022-10-31T03:47:52.149Z,87.20
2022-10-31T03:48:55.487Z,85.65
2022-10-31T03:49:59.121Z,87.18
2022-10-31T03:51:08.561Z,88.75
2022-10-31T03:52:19.349Z,88.78
2022-10-31T03:54:33.983Z,85.70
2022-10-31T03:55:43.385Z,91.57
2022-10-31T03:56:51.499Z,84.03
2022-10-31T03:58:01.958Z,92.03
2022-10-31T03:59:10.045Z,93.68
2022-10-31T04:00:15.685Z,99.18
2022-10-31T04:01:23.059Z,89.45
2022-10-31T04:02:30.716Z,97.95
2022-10-31T04:03:36.496Z,91.03
2022-10-31T04:04:40.695Z,90.45
2022-10-31T04:05:47.051Z,95.45
2022-10-31T04:06:53.040Z,93.00
2022-10-31T04:07:58.388Z,103.60
2022-10-31T04:09:05.560Z,87.72
2022-10-31T04:10:11.069Z,95.15
2022-10-31T04:11:18.051Z,86.28
2022-10-31T04:12:26.520Z,94.28
2022-10-31T04:13:40.732Z,96.80
2022-10-31T04:14:51.613Z,93.85
2022-10-31T04:15:57.337Z,98.75
2022-10-31T04:17:04.271Z,96.75
2022-10-31T04:18:12.596Z,101.50
2022-10-31T04:19:15.889Z,90.55
2022-10-31T04:20:20.049Z,92.32
2022-10-31T04:21:30.087Z,95.68
2022-10-31T04:22:34.210Z,109.38
2022-10-31T04:23:37.433Z,97.20
2022-10-31T04:24:54.323Z,95.15
2022-10-31T04:25:56.460Z,100.68
2022-10-31T04:26:59.536Z,96.15
2022-10-31T04:28:02.737Z,98.03
2022-10-31T04:29:06.164Z,101.53
2022-10-31T04:30:09.295Z,107.75
2022-10-31T04:31:16.417Z,103.45
2022-10-31T04:32:20.371Z,108.40
2022-10-31T04:33:23.461Z,104.32
2022-10-31T04:34:26.310Z,94.28
2022-10-31T04:35:29.419Z,96.60
2022-10-31T04:36:33.945Z,96.20
2022-10-31T04:37:36.105Z,100.32
2022-10-31T04:38:40.076Z,98.30
2022-10-31T04:39:50.924Z,104.18
2022-10-31T04:41:12.669Z,94.78
2022-10-31T04:42:30.436Z,95.45
2022-10-31T04:43:35.834Z,96.43
2022-10-31T04:44:37.972Z,101.40
2022-10-31T04:45:41.077Z,94.72
2022-10-31T04:46:44.273Z,96.18
2022-10-31T04:47:47.614Z,108.10
2022-10-31T04:48:50.026Z,100.75
2022-10-31T04:49:53.976Z,108.72
2022-10-31T04:51:00.566Z,86.95
2022-10-31T04:52:05.956Z,92.25
2022-10-31T04:53:08.530Z,91.25
2022-10-31T04:54:20.417Z,95.43
2022-10-31T04:55:40.914Z,87.22
2022-10-31T04:56:54.795Z,84.15
2022-10-31T04:57:59.262Z,90.35
2022-10-31T04:59:03.636Z,94.45
2022-10-31T05:00:19.713Z,93.57
2022-10-31T05:01:25.030Z,86.57
2022-10-31T05:02:28.314Z,95.47
2022-10-31T05:03:32.877Z,90.43
2022-10-31T05:04:36.027Z,98.88
2022-10-31T05:05:38.961Z,95.28
2022-10-31T05:06:42.155Z,100.97
2022-10-31T05:07:47.485Z,83.53
2022-10-31T05:08:50.566Z,96.75
2022-10-31T05:09:52.683Z,121.05
2022-10-31T05:11:00.340Z,83.93
2022-10-31T05:12:06.287Z,81.88
2022-10-31T05:13:32.610Z,109.68
2022-10-31T05:14:49.718Z,81.93
2022-10-31T05:16:11.381Z,95.85
2022-10-31T05:17:25.187Z,77.32
2022-10-31T05:19:03.730Z,85.15
2022-10-31T05:20:28.342Z,83.78
2022-10-31T05:21:46.181Z,86.60
2022-10-31T05:22:51.455Z,79.38
2022-10-31T05:23:54.636Z,82.40
2022-10-31T05:24:59.113Z,87.40
2022-10-31T05:26:02.229Z,86.57
2022-10-31T05:27:04.382Z,85.22
2022-10-31T05:28:07.581Z,89.47
2022-10-31T05:29:09.806Z,92.40
2022-10-31T05:30:16.009Z,117.25
2022-10-31T05:31:18.314Z,157.23
2022-10-31T05:32:21.528Z,164.95
2022-10-31T05:33:53.547Z,85.43
2022-10-31T05:35:15.414Z,119.18
2022-10-31T05:36:41.576Z,83.00
2022-10-31T05:38:04.061Z,91.80
2022-10-31T05:39:06.853Z,85.78
2022-10-31T05:40:19.537Z,102.97
2022-10-31T05:41:21.691Z,191.75
2022-10-31T05:42:25.100Z,94.00
2022-10-31T05:43:27.815Z,130.23
2022-10-31T05:44:31.191Z,81.18
2022-10-31T05:45:44.222Z,86.93
2022-10-31T05:47:04.247Z,177.25
2022-10-31T05:48:32.978Z,94.03
2022-10-31T05:50:05.297Z,82.65
2022-10-31T05:51:17.706Z,83.82
2022-10-31T05:52:20.884Z,79.78
2022-10-31T05:53:32.771Z,87.47
2022-10-31T05:54:34.814Z,82.28
2022-10-31T05:55:37.846Z,152.32
2022-10-31T05:56:52.672Z,126.45
2022-10-31T05:57:56.739Z,90.13
2022-10-31T05:58:58.924Z,121.38
2022-10-31T06:00:03.490Z,75.82
2022-10-31T06:01:09.448Z,90.20
2022-10-31T06:02:12.898Z,165.68
2022-10-31T06:03:48.012Z,73.35
2022-10-31T06:04:52.218Z,79.97
2022-10-31T06:05:55.663Z,72.28
2022-10-31T06:07:00.905Z,81.30
2022-10-31T06:08:04.442Z,97.68
2022-10-31T06:09:09.163Z,79.57
2022-10-31T06:10:12.286Z,81.47
2022-10-31T06:11:15.482Z,80.07
2022-10-31T06:12:38.669Z,83.00
2022-10-31T06:13:55.910Z,143.45
2022-10-31T06:15:01.577Z,96.13
2022-10-31T06:16:06.897Z,75.22
2022-10-31T06:17:12.377Z,80.00
2022-10-31T06:18:24.399Z,201.52
2022-10-31T06:19:29.476Z,75.47
2022-10-31T06:20:32.707Z,169.68
2022-10-31T06:21:38.555Z,154.32
2022-10-31T06:22:42.254Z,127.30
2022-10-31T06:23:44.293Z,69.43
2022-10-31T06:25:20.582Z,77.82
2022-10-31T06:26:25.058Z,88.35
2022-10-31T06:27:29.642Z,70.75
2022-10-31T06:28:34.442Z,80.78
2022-10-31T06:29:48.208Z,71.03
2022-10-31T06:30:59.151Z,59.90
2022-10-31T06:32:01.825Z,66.90
2022-10-31T06:33:07.254Z,60.78
2022-10-31T06:34:13.607Z,59.63
2022-10-31T06:35:18.316Z,81.45
2022-10-31T06:36:20.508Z,90.68
2022-10-31T06:37:23.882Z,66.82
2022-10-31T06:38:27.330Z,63.30
2022-10-31T06:39:30.689Z,110.07
2022-10-31T06:40:34.867Z,73.13
2022-10-31T06:41:52.073Z,76.13
2022-10-31T06:43:00.348Z,101.05
2022-10-31T06:44:06.407Z,72.20
2022-10-31T06:45:30.315Z,67.22
2022-10-31T06:47:02.478Z,69.93
2022-10-31T06:48:18.413Z,57.38
2022-10-31T06:49:40.582Z,60.65
2022-10-31T06:50:49.391Z,66.38
2022-10-31T06:51:53.037Z,58.47
2022-10-31T06:52:57.208Z,62.58
2022-10-31T06:54:00.264Z,51.15
2022-10-31T06:55:02.376Z,59.72
2022-10-31T06:56:07.462Z,52.15
2022-10-31T06:57:15.858Z,55.95
2022-10-31T06:58:18.010Z,55.38
2022-10-31T06:59:22.567Z,59.30
2022-10-31T07:00:47.086Z,78.75
2022-10-31T07:01:50.261Z,56.88
2022-10-31T07:02:56.996Z,84.60
2022-10-31T07:04:00.278Z,82.40
2022-10-31T07:05:02.504Z,66.20
2022-10-31T07:06:06.074Z,55.35
2022-10-31T07:07:08.865Z,98.22
2022-10-31T07:08:15.676Z,145.85
2022-10-31T07:09:19.386Z,115.32
2022-10-31T07:10:22.380Z,52.63
2022-10-31T07:12:37.416Z,60.75
2022-10-31T07:13:40.562Z,110.50
2022-10-31T07:14:43.447Z,79.95
2022-10-31T07:15:47.291Z,129.63
2022-10-31T07:16:52.045Z,69.55
2022-10-31T07:18:01.464Z,68.25
2022-10-31T07:19:04.539Z,268.02
2022-10-31T07:20:07.827Z,75.63
2022-10-31T07:21:10.920Z,65.45
2022-10-31T07:22:12.956Z,55.55
2022-10-31T07:23:18.550Z,57.88
2022-10-31T07:24:26.864Z,61.40
2022-10-31T07:25:48.605Z,58.65
2022-10-31T07:26:57.385Z,55.80
2022-10-31T07:28:00.532Z,152.82
2022-10-31T07:29:03.955Z,65.93
2022-10-31T07:30:08.778Z,51.00
2022-10-31T07:31:11.922Z,56.08
2022-10-31T07:32:16.469Z,65.43
2022-10-31T07:33:27.021Z,59.17
2022-10-31T07:34:50.277Z,44.58
2022-10-31T07:35:57.829Z,42.90
2022-10-31T07:37:05.904Z,116.60
2022-10-31T07:38:09.303Z,42.88
2022-10-31T07:39:12.325Z,34.83
2022-10-31T07:40:14.729Z,45.28
2022-10-31T07:41:17.748Z,40.17
2022-10-31T07:42:22.230Z,49.80
2022-10-31T07:43:26.964Z,46.35
2022-10-31T07:45:02.415Z,54.97
2022-10-31T07:46:24.504Z,37.15
2022-10-31T07:47:47.039Z,47.28
2022-10-31T07:49:10.404Z,33.92
2022-10-31T07:50:35.297Z,47.03
2022-10-31T07:51:57.370Z,37.58
2022-10-31T07:53:17.903Z,35.08
2022-10-31T07:54:26.319Z,41.03
2022-10-31T07:55:30.110Z,34.38
2022-10-31T07:56:34.768Z,33.30
2022-10-31T07:57:38.363Z,36.00
2022-10-31T07:58:41.748Z,45.78
2022-10-31T07:59:43.785Z,39.88
2022-10-31T08:00:49.629Z,58.80
2022-10-31T08:02:02.681Z,62.03
2022-10-31T08:03:10.360Z,53.53
2022-10-31T08:04:42.089Z,171.27
2022-10-31T08:05:57.627Z,66.78
2022-10-31T08:07:19.027Z,31.08
2022-10-31T08:08:32.315Z,55.45
2022-10-31T08:09:37.379Z,49.10
2022-10-31T08:10:50.289Z,46.40
2022-10-31T08:11:53.568Z,39.38
2022-10-31T08:13:02.126Z,44.42
2022-10-31T08:14:06.124Z,143.18
2022-10-31T08:15:10.273Z,195.82
2022-10-31T08:16:13.573Z,55.92
2022-10-31T08:17:25.392Z,28.42
2022-10-31T08:18:32.933Z,66.03
2022-10-31T08:19:36.372Z,57.63
2022-10-31T08:20:40.076Z,73.40
2022-10-31T08:21:43.847Z,100.72
2022-10-31T08:22:54.508Z,74.88
2022-10-31T08:23:58.417Z,33.83
2022-10-31T08:25:01.280Z,52.67
2022-10-31T08:26:07.208Z,24.75
2022-10-31T08:27:09.411Z,25.05
2022-10-31T08:28:16.674Z,41.38
2022-10-31T08:29:21.331Z,24.17
2022-10-31T08:30:25.929Z,49.58
2022-10-31T08:31:48.996Z,33.20
2022-10-31T08:33:13.281Z,45.97
2022-10-31T08:34:39.211Z,68.15
2022-10-31T08:36:01.183Z,37.47
2022-10-31T08:37:22.062Z,48.83
2022-10-31T08:38:29.799Z,102.53
2022-10-31T08:39:31.833Z,34.33
2022-10-31T08:40:37.855Z,72.03
2022-10-31T08:41:40.007Z,156.85
2022-10-31T08:42:47.533Z,136.25
2022-10-31T08:43:52.005Z,32.42
2022-10-31T08:44:54.041Z,31.65
2022-10-31T08:45:58.792Z,44.83
2022-10-31T08:47:04.117Z,27.00
2022-10-31T08:48:13.019Z,25.02
2022-10-31T08:49:16.232Z,29.95
2022-10-31T08:50:19.580Z,39.00
2022-10-31T08:51:23.764Z,25.17
2022-10-31T08:52:51.238Z,27.38
2022-10-31T08:53:52.138Z,24.63
2022-10-31T08:55:10.389Z,107.97
2022-10-31T08:56:31.991Z,75.80
2022-10-31T08:57:35.074Z,85.45
2022-10-31T08:58:40.392Z,29.95
2022-10-31T08:59:45.873Z,34.85
2022-10-31T09:01:01.968Z,83.45
2022-10-31T09:02:05.116Z,99.32
2022-10-31T09:03:12.619Z,121.13
2022-10-31T09:04:14.902Z,35.60
2022-10-31T09:05:18.031Z,75.20
2022-10-31T09:06:20.231Z,48.25
2022-10-31T09:07:24.982Z,28.73
2022-10-31T09:08:32.003Z,28.80
2022-10-31T09:09:35.056Z,25.15
2022-10-31T09:10:39.540Z,47.10
2022-10-31T09:11:41.737Z,43.33
2022-10-31T09:12:47.587Z,48.30
2022-10-31T09:13:59.556Z,40.47
2022-10-31T09:15:33.144Z,39.03
2022-10-31T09:16:57.037Z,41.08
2022-10-31T09:18:06.786Z,37.65
2022-10-31T09:19:25.723Z,46.17
2022-10-31T09:20:28.163Z,68.22
2022-10-31T09:21:31.613Z,54.55
2022-10-31T09:22:34.534Z,57.13
2022-10-31T09:23:37.600Z,44.15
2022-10-31T09:24:39.847Z,40.80
2022-10-31T09:25:49.316Z,39.13
2022-10-31T09:27:12.205Z,28.27
2022-10-31T09:28:19.177Z,29.98
2022-10-31T09:29:23.111Z,28.38
2022-10-31T09:30:34.645Z,27.50
2022-10-31T09:31:42.311Z,41.78
2022-10-31T09:33:03.600Z,31.50
2022-10-31T09:34:05.749Z,31.15
2022-10-31T09:35:14.793Z,28.42
2022-10-31T09:36:19.310Z,35.20
2022-10-31T09:37:22.468Z,29.50
2022-10-31T09:38:25.330Z,25.25
2022-10-31T09:39:28.519Z,28.35
2022-10-31T09:40:38.786Z,25.58
2022-10-31T09:42:01.110Z,30.35
2022-10-31T09:43:14.505Z,28.38
2022-10-31T09:44:28.821Z,21.50
2022-10-31T09:45:40.162Z,27.10
2022-10-31T09:47:04.444Z,27.45
2022-10-31T09:48:33.104Z,34.45
2022-10-31T09:50:04.829Z,29.48
2022-10-31T09:51:11.599Z,30.92
2022-10-31T09:52:35.249Z,32.60
2022-10-31T09:53:46.704Z,36.42
2022-10-31T09:54:55.959Z,38.42
2022-10-31T09:56:00.842Z,34.72
2022-10-31T09:57:05.770Z,36.75
2022-10-31T09:58:14.660Z,35.25
2022-10-31T09:59:26.345Z,39.17
2022-10-31T10:00:29.018Z,37.80
2022-10-31T10:01:45.193Z,35.72
2022-10-31T10:02:51.864Z,31.73
2022-10-31T10:04:01.288Z,31.80
2022-10-31T10:05:35.491Z,31.42
2022-10-31T10:06:45.748Z,29.15
2022-10-31T10:08:14.048Z,22.20
2022-10-31T10:09:40.092Z,29.25
2022-10-31T10:11:14.832Z,27.20
2022-10-31T10:13:08.093Z,24.90
2022-10-31T10:14:27.630Z,29.42
2022-10-31T10:15:50.047Z,23.48
2022-10-31T10:17:07.250Z,18.63
2022-10-31T10:18:22.747Z,19.83
2022-10-31T10:19:43.702Z,21.73
2022-10-31T10:20:59.733Z,19.10
2022-10-31T10:22:11.697Z,16.65
2022-10-31T10:23:33.098Z,21.77
2022-10-31T10:24:54.223Z,19.95
2022-10-31T10:26:11.191Z,20.27
2022-10-31T10:27:23.428Z,30.70
2022-10-31T10:28:32.616Z,21.95
2022-10-31T10:29:42.938Z,24.30
2022-10-31T10:30:51.458Z,28.05
2022-10-31T10:32:00.228Z,27.67
2022-10-31T10:33:08.622Z,26.20
2022-10-31T10:34:20.167Z,30.63
2022-10-31T10:35:28.252Z,31.17
2022-10-31T10:36:39.156Z,29.05
2022-10-31T10:37:45.314Z,29.75
2022-10-31T10:38:53.437Z,30.52
2022-10-31T10:39:58.914Z,32.33
2022-10-31T10:41:04.873Z,30.80
2022-10-31T10:42:30.869Z,31.50
2022-10-31T10:43:36.511Z,26.25
2022-10-31T10:44:59.840Z,26.10
2022-10-31T10:46:36.126Z,27.58
2022-10-31T10:47:43.732Z,25.83
2022-10-31T10:48:51.307Z,26.83
2022-10-31T10:49:54.838Z,32.47
2022-10-31T10:50:58.613Z,28.90
2022-10-31T10:54:03.212Z,22.63
2022-10-31T10:55:15.603Z,25.92
2022-10-31T10:56:28.910Z,30.00
2022-10-31T10:57:57.124Z,19.95
2022-10-31T10:58:59.451Z,25.95
2022-10-31T11:00:06.286Z,26.00
2022-10-31T11:02:20.963Z,23.73
2022-10-31T11:03:25.393Z,22.83
2022-10-31T11:04:33.245Z,25.27
2022-10-31T11:05:39.582Z,24.48
2022-10-31T11:06:41.935Z,31.42
2022-10-31T11:07:45.336Z,24.83
2022-10-31T11:08:47.942Z,24.48
2022-10-31T11:09:51.581Z,27.55
2022-10-31T11:11:06.268Z,22.15
2022-10-31T11:12:11.833Z,20.42
2022-10-31T11:13:25.750Z,29.48
2022-10-31T11:14:28.581Z,25.38
2022-10-31T11:15:34.343Z,24.73
2022-10-31T11:16:49.052Z,27.92
2022-10-31T11:17:53.198Z,23.30
2022-10-31T11:19:09.949Z,29.05
2022-10-31T11:20:32.780Z,25.95
2022-10-31T11:21:35.717Z,22.58
2022-10-31T11:22:38.993Z,23.95
2022-10-31T11:23:41.402Z,20.70
2022-10-31T11:24:44.753Z,19.55
2022-10-31T11:25:55.669Z,22.00
2022-10-31T11:27:13.982Z,22.58
2022-10-31T11:28:16.329Z,22.00
2022-10-31T11:29:23.639Z,21.00
2022-10-31T11:30:25.916Z,19.73
2022-10-31T11:31:29.727Z,21.25
2022-10-31T11:32:32.052Z,20.92
2022-10-31T11:33:38.131Z,17.10
2022-10-31T11:34:47.076Z,28.50
2022-10-31T11:35:53.425Z,23.58
2022-10-31T11:37:06.787Z,22.45
2022-10-31T11:38:09.937Z,20.58
2022-10-31T11:39:19.177Z,20.20
2022-10-31T11:40:25.018Z,20.42
2022-10-31T11:41:32.657Z,20.80
2022-10-31T11:42:39.865Z,24.33
2022-10-31T11:43:50.536Z,23.05
2022-10-31T11:45:58.746Z,20.42
2022-10-31T11:47:03.725Z,21.73
2022-10-31T11:48:18.813Z,20.52
2022-10-31T11:49:26.964Z,18.98
2022-10-31T11:50:37.819Z,21.73
2022-10-31T11:51:42.269Z,23.52
2022-10-31T11:52:45.522Z,22.85
2022-10-31T11:53:56.933Z,22.83
2022-10-31T11:55:04.389Z,21.83
2022-10-31T11:56:14.575Z,20.98
2022-10-31T11:57:29.029Z,22.38
2022-10-31T11:58:31.253Z,18.90
2022-10-31T11:59:35.073Z,19.52
2022-10-31T12:00:41.872Z,20.63
2022-10-31T12:01:50.590Z,21.80
2022-10-31T12:03:11.647Z,23.83
2022-10-31T12:04:17.038Z,23.52
2022-10-31T12:05:22.662Z,20.00
2022-10-31T12:06:33.053Z,22.40
2022-10-31T12:07:36.665Z,25.00
2022-10-31T12:08:40.634Z,25.20
2022-10-31T12:09:44.041Z,28.10
2022-10-31T12:10:57.062Z,24.67
2022-10-31T12:12:15.530Z,25.45
2022-10-31T12:13:34.427Z,29.25
2022-10-31T12:14:46.913Z,25.33
2022-10-31T12:15:57.602Z,23.55
2022-10-31T12:18:28.521Z,26.48
2022-10-31T12:19:42.274Z,28.08
2022-10-31T12:20:53.011Z,27.65
2022-10-31T12:23:12.076Z,22.95
2022-10-31T12:24:24.989Z,25.23
2022-10-31T12:25:42.538Z,23.73
2022-10-31T12:26:58.465Z,20.63
2022-10-31T12:28:13.802Z,25.55
2022-10-31T12:29:30.520Z,22.40
2022-10-31T12:30:45.972Z,23.27
2022-10-31T12:32:04.221Z,22.55
2022-10-31T12:33:40.246Z,23.58
2022-10-31T12:35:06.453Z,21.77
2022-10-31T12:36:22.981Z,29.70
2022-10-31T12:37:43.226Z,23.45
2022-10-31T12:39:07.040Z,28.30
2022-10-31T12:40:31.944Z,25.10
2022-10-31T12:42:10.899Z,30.63
2022-10-31T12:43:31.031Z,26.00
2022-10-31T12:45:14.811Z,30.92
2022-10-31T12:46:26.583Z,30.42
2022-10-31T12:47:43.411Z,30.13
2022-10-31T12:49:12.747Z,34.13
2022-10-31T12:50:27.388Z,31.67
2022-10-31T12:51:39.751Z,33.28
2022-10-31T12:52:55.773Z,36.97
2022-10-31T12:54:18.454Z,35.45
2022-10-31T12:55:47.336Z,39.75
2022-10-31T12:57:05.513Z,41.00
2022-10-31T12:58:13.742Z,37.78
2022-10-31T12:59:27.866Z,35.85
2022-10-31T13:00:33.050Z,33.22
2022-10-31T13:01:40.139Z,36.65
2022-10-31T13:02:50.103Z,38.47
2022-10-31T13:04:00.103Z,36.80
2022-10-31T13:05:06.941Z,33.97
2022-10-31T13:06:14.973Z,33.17
2022-10-31T13:07:22.617Z,35.38
2022-10-31T13:08:35.548Z,36.13
2022-10-31T13:09:43.305Z,35.13
2022-10-31T13:10:50.414Z,37.25
2022-10-31T13:11:59.113Z,35.47
2022-10-31T13:13:09.215Z,34.03
2022-10-31T13:14:18.787Z,38.92
2022-10-31T13:15:25.653Z,36.72
2022-10-31T13:16:32.482Z,33.13
2022-10-31T13:17:40.853Z,33.78
2022-10-31T13:18:49.070Z,36.63
2022-10-31T13:19:54.901Z,33.10
2022-10-31T13:21:01.283Z,37.55
2022-10-31T13:22:09.116Z,34.47
2022-10-31T13:23:48.592Z,32.60
2022-10-31T13:24:49.136Z,36.42
2022-10-31T13:25:55.263Z,35.05
2022-10-31T13:27:01.470Z,35.55
2022-10-31T13:28:10.440Z,34.25
2022-10-31T13:29:21.569Z,35.33
2022-10-31T13:30:26.924Z,35.22
2022-10-31T13:31:30.145Z,37.25
2022-10-31T13:32:47.916Z,36.53
2022-10-31T13:33:55.252Z,40.75
2022-10-31T13:35:01.075Z,34.63
2022-10-31T13:36:21.197Z,30.52
2022-10-31T13:37:43.903Z,32.83
2022-10-31T13:38:52.810Z,33.67
2022-10-31T13:40:12.570Z,31.73
2022-10-31T13:41:28.003Z,36.13
2022-10-31T13:42:43.180Z,35.28
2022-10-31T13:44:01.554Z,36.85
2022-10-31T13:45:15.714Z,35.80
2022-10-31T13:46:27.509Z,36.20
2022-10-31T13:47:30.796Z,37.42
2022-10-31T13:48:43.740Z,38.25
2022-10-31T13:49:45.978Z,37.70
2022-10-31T13:50:58.577Z,33.47
2022-10-31T13:52:07.392Z,42.35
2022-10-31T13:53:15.807Z,40.55
2022-10-31T13:54:22.963Z,44.45
2022-10-31T13:55:42.129Z,39.83
2022-10-31T13:56:51.699Z,37.25
2022-10-31T13:57:54.970Z,37.03
2022-10-31T13:59:04.501Z,35.75
2022-10-31T14:00:25.251Z,42.45
2022-10-31T14:01:29.874Z,37.80
2022-10-31T14:02:35.562Z,37.83
2022-10-31T14:04:04.659Z,40.13
2022-10-31T14:05:05.034Z,43.60
2022-10-31T14:06:09.549Z,42.63
2022-10-31T14:07:14.258Z,44.92
2022-10-31T14:08:21.691Z,45.25
2022-10-31T14:09:29.488Z,47.58
2022-10-31T14:10:35.813Z,45.50
2022-10-31T14:11:39.393Z,48.88
2022-10-31T14:12:45.291Z,47.03
2022-10-31T14:13:47.931Z,48.83
2022-10-31T14:14:53.568Z,48.05
2022-10-31T14:15:59.230Z,47.28
2022-10-31T14:17:03.048Z,46.45
2022-10-31T14:18:08.814Z,47.45
2022-10-31T14:19:17.606Z,46.42
2022-10-31T14:20:34.798Z,44.50
2022-10-31T14:21:40.051Z,45.05
2022-10-31T14:22:43.611Z,45.03
2022-10-31T14:23:48.325Z,39.20
2022-10-31T14:24:54.025Z,39.15
2022-10-31T14:26:08.146Z,42.70
2022-10-31T14:27:37.243Z,45.03
2022-10-31T14:28:39.332Z,39.60
2022-10-31T14:29:45.414Z,39.25
2022-10-31T14:30:54.318Z,43.38
2022-10-31T14:32:11.697Z,40.33
2022-10-31T14:33:20.745Z,35.75
2022-10-31T14:34:27.025Z,42.20
2022-10-31T14:35:53.570Z,37.30
2022-10-31T14:37:16.500Z,33.95
2022-10-31T14:38:49.219Z,34.85
2022-10-31T14:40:05.100Z,32.47
2022-10-31T14:41:33.063Z,36.45
2022-10-31T14:42:54.354Z,32.70
2022-10-31T14:45:27.695Z,30.48
2022-10-31T14:46:42.435Z,32.25
2022-10-31T14:48:01.472Z,29.92
2022-10-31T14:50:39.776Z,30.33
2022-10-31T14:51:46.246Z,32.15
2022-10-31T14:52:52.924Z,29.17
2022-10-31T14:53:57.728Z,30.35
2022-10-31T14:55:01.809Z,29.45
2022-10-31T14:56:11.563Z,30.48
2022-10-31T14:57:18.745Z,32.15
2022-10-31T14:58:26.503Z,32.03
2022-10-31T14:59:33.621Z,29.70
2022-10-31T15:00:37.161Z,30.08
2022-10-31T15:01:42.092Z,33.90
2022-10-31T15:02:53.406Z,29.42
2022-10-31T15:04:22.274Z,32.92
2022-10-31T15:05:24.430Z,32.13